Stewartsville, Missouri
Current Conditions -  °F | °C
As of 7:53 PM on Friday 24 Oct 2014 (Local Time) from KSTJ Reporting Station
Clear Clear  
Wind Chill: 18°   Ceiling: Unl
Heat Index: 18°   Visibility: 10mi
Dew Point: 16°   Wind: 0mph
Humidity: 90%   Direction: NA
Pressure: 29.95"   Gusts: NA
Location:  39.75°N, 94.5°W
Report Text: KSTJ 250053Z AUTO 00000KT 10SM CLR 18/16 A2995 RMK AO2 SLP138 T01780161
Loading
Personal Weather Stations






























Interactive Weather Map
Tropical Storm Tracking
New forecast layout! Learn more

10-Day Weather Forecast

Advertisements
Track Severe Weather on mobile